»·PEaware :: SWA277 KHRL-KHOU

SWA277 :: KHRL-KHOU

FLIGHT INFORMATION

Flight Status: Arrived
Operator:
Southwest Airlines
More flights by this operator :: More flights under this callsign
Pilot: Andrew J. (13363)
Aircraft: BOEING 737-300
(B733)
More flights by this aircraft type
Origin: KHRL Valley Intl
United States
Destination: KHOU Hobby
United States
More flights between these airports :: More routes between these airports
Route: CRP TCHDN2
File this flight plan on PilotEdge
Remarks:
Altitude:
(Current/Filed)
35,000ft
Speed:
(Current/Filed)
460kts
Departed: 03-Jun-17 06:09 PM
Arrived: 03-Jun-17 07:03 PM
Distance/Time
Traveled:
241nm/0:54
Distance/Time
To Go:
Arrived

Flight Plot

Page will automatically refresh every two minutes.

Flight plan parsing failed; only flown route is shown


Map Options




Map Legend


Flown Route
Filed Route
Departure Airport
Arrival Airport
Navaid (VOR, NDB)
Fix

Horizontal Profiles

Position Reports

Time Latitude Longitude Heading Altitude Ground
Speed
03-Jun-17 18:02 26.224330 -97.660558 270 43ft 0kts
03-Jun-17 18:03 26.224325 -97.660336 271 43ft 0kts
03-Jun-17 18:04 26.224325 -97.660337 271 43ft 0kts
03-Jun-17 18:05 26.224325 -97.660337 271 43ft 0kts
03-Jun-17 18:06 26.223466 -97.660415 179 43ft 11kts
03-Jun-17 18:07 26.217992 -97.659385 133 43ft 23kts
03-Jun-17 18:08 26.217805 -97.658859 2 43ft 0kts
03-Jun-17 18:09 26.217805 -97.658859 2 43ft 0kts
03-Jun-17 18:10 26.217805 -97.658859 2 43ft 0kts
03-Jun-17 18:11 26.230411 -97.658701 1 43ft 143kts
03-Jun-17 18:12 26.276519 -97.655662 7 1639ft 190kts
03-Jun-17 18:13 26.322461 -97.649515 8 3579ft 209kts
03-Jun-17 18:14 26.394085 -97.638880 4 6457ft 239kts
03-Jun-17 18:15 26.468842 -97.629652 5 8615ft 291kts
03-Jun-17 18:16 26.554037 -97.618841 5 10706ft 343kts
03-Jun-17 18:17 26.650694 -97.606525 5 13700ft 360kts
03-Jun-17 18:18 26.752228 -97.593587 4 16636ft 375kts
03-Jun-17 18:19 26.838911 -97.582525 4 18867ft 388kts
03-Jun-17 18:20 26.948401 -97.568528 4 21293ft 405kts
03-Jun-17 18:21 27.081885 -97.551426 4 23820ft 425kts
03-Jun-17 18:22 27.178367 -97.539059 4 25455ft 438kts
03-Jun-17 18:23 27.300212 -97.523389 3 27362ft 451kts
03-Jun-17 18:24 27.425889 -97.507178 3 29370ft 458kts
03-Jun-17 18:25 27.551268 -97.490978 3 31667ft 452kts
03-Jun-17 18:26 27.674311 -97.475048 3 33641ft 447kts
03-Jun-17 18:27 27.797385 -97.459084 3 34901ft 449kts
03-Jun-17 18:28 27.919885 -97.441223 16 34844ft 449kts
03-Jun-17 18:29 28.012487 -97.349003 39 34873ft 458kts
03-Jun-17 18:30 28.104928 -97.264689 37 34852ft 456kts
03-Jun-17 18:31 28.146508 -97.227585 37 34861ft 455kts
03-Jun-17 18:32 28.245370 -97.138692 37 34862ft 455kts
03-Jun-17 18:33 28.343998 -97.049831 37 34861ft 455kts
03-Jun-17 18:34 28.442139 -96.961195 37 34882ft 454kts
03-Jun-17 18:35 28.540819 -96.871519 37 34890ft 455kts
03-Jun-17 18:36 28.638486 -96.782899 37 34888ft 454kts
03-Jun-17 18:37 28.736868 -96.693185 37 34888ft 454kts
03-Jun-17 18:38 28.834757 -96.603800 37 33992ft 453kts
03-Jun-17 18:39 28.932857 -96.514038 37 32837ft 459kts
03-Jun-17 18:40 29.031534 -96.423630 37 30338ft 460kts
03-Jun-17 18:41 29.117042 -96.330081 45 27547ft 467kts
03-Jun-17 18:42 29.203174 -96.230245 45 24654ft 450kts
03-Jun-17 18:43 29.288820 -96.130929 44 21678ft 434kts
03-Jun-17 18:44 29.370596 -96.035407 44 19193ft 404kts
03-Jun-17 18:45 29.445550 -95.947857 44 17207ft 377kts
03-Jun-17 18:46 29.517298 -95.863939 45 15217ft 365kts
03-Jun-17 18:47 29.560270 -95.765044 49 13212ft 345kts
03-Jun-17 18:48 29.645079 -95.727012 12 11224ft 329kts
03-Jun-17 18:49 29.730181 -95.704546 12 10100ft 292kts
03-Jun-17 18:50 29.806575 -95.684525 12 8825ft 283kts
03-Jun-17 18:51 29.837750 -95.615397 98 7136ft 275kts
03-Jun-17 18:52 29.815123 -95.533189 112 5464ft 273kts
03-Jun-17 18:53 29.788423 -95.455734 112 4393ft 252kts
03-Jun-17 18:54 29.746315 -95.399776 150 3993ft 222kts
03-Jun-17 18:55 29.706751 -95.437351 252 3988ft 223kts
03-Jun-17 18:56 29.726170 -95.502408 301 3373ft 217kts
03-Jun-17 18:57 29.758591 -95.560288 302 2491ft 220kts
03-Jun-17 18:58 29.800643 -95.577206 66 1949ft 202kts
03-Jun-17 18:59 29.801580 -95.513320 92 2017ft 197kts
03-Jun-17 19:00 29.789774 -95.453582 117 2026ft 192kts
03-Jun-17 19:01 29.754874 -95.407963 133 1979ft 191kts
03-Jun-17 19:02 29.718199 -95.365539 132 1989ft 183kts
03-Jun-17 19:03 29.683466 -95.324012 135 1091ft 167kts
03-Jun-17 19:04 29.654873 -95.290272 134 211ft 137kts
03-Jun-17 19:05 29.639244 -95.269956 70 49ft 10kts
03-Jun-17 19:06 29.642371 -95.273014 313 49ft 19kts
03-Jun-17 19:07 29.646662 -95.278110 313 49ft 24kts
03-Jun-17 19:08 29.649421 -95.277079 46 49ft 15kts
03-Jun-17 19:09 29.652505 -95.273113 5 49ft 10kts
03-Jun-17 19:10 29.653217 -95.275455 205 49ft 1kts
03-Jun-17 19:11 29.653158 -95.275486 204 49ft 0kts

Navigation Log

Ident Type
Flight plan parsing failed, navigation log unavailable